sensor_id;sensor_type;location;lat;lon;timestamp;temperature;humidity
23116;DHT22;11727;52.134;5.052;2023-09-08T00:01:50;20.50;99.90
23116;DHT22;11727;52.134;5.052;2023-09-08T00:04:16;20.40;99.90
23116;DHT22;11727;52.134;5.052;2023-09-08T00:06:41;20.40;99.90
23116;DHT22;11727;52.134;5.052;2023-09-08T00:09:07;20.40;99.90
23116;DHT22;11727;52.134;5.052;2023-09-08T00:11:33;20.30;99.90
23116;DHT22;11727;52.134;5.052;2023-09-08T00:13:59;20.20;99.90
23116;DHT22;11727;52.134;5.052;2023-09-08T00:16:24;20.20;99.90
23116;DHT22;11727;52.134;5.052;2023-09-08T00:18:50;20.20;99.90
23116;DHT22;11727;52.134;5.052;2023-09-08T00:21:16;20.10;99.90
23116;DHT22;11727;52.134;5.052;2023-09-08T00:23:42;20.10;99.90
23116;DHT22;11727;52.134;5.052;2023-09-08T00:26:07;20.10;99.90
23116;DHT22;11727;52.134;5.052;2023-09-08T00:28:33;20.10;99.90
23116;DHT22;11727;52.134;5.052;2023-09-08T00:30:58;20.10;99.90
23116;DHT22;11727;52.134;5.052;2023-09-08T00:33:25;20.00;99.90
23116;DHT22;11727;52.134;5.052;2023-09-08T00:35:51;20.00;99.90
23116;DHT22;11727;52.134;5.052;2023-09-08T00:38:19;20.00;99.90
23116;DHT22;11727;52.134;5.052;2023-09-08T00:40:45;20.00;99.90
23116;DHT22;11727;52.134;5.052;2023-09-08T00:43:10;20.00;99.90
23116;DHT22;11727;52.134;5.052;2023-09-08T00:45:39;19.90;99.90
23116;DHT22;11727;52.134;5.052;2023-09-08T00:48:06;19.90;99.90
23116;DHT22;11727;52.134;5.052;2023-09-08T00:50:32;19.90;99.90
23116;DHT22;11727;52.134;5.052;2023-09-08T00:52:58;19.80;99.90
23116;DHT22;11727;52.134;5.052;2023-09-08T00:55:24;19.80;99.90
23116;DHT22;11727;52.134;5.052;2023-09-08T00:57:50;19.80;99.90
23116;DHT22;11727;52.134;5.052;2023-09-08T01:00:18;19.80;99.90
23116;DHT22;11727;52.134;5.052;2023-09-08T01:02:44;19.70;99.90
23116;DHT22;11727;52.134;5.052;2023-09-08T01:05:10;19.70;99.90
23116;DHT22;11727;52.134;5.052;2023-09-08T01:07:36;19.80;99.90
23116;DHT22;11727;52.134;5.052;2023-09-08T01:10:02;19.70;99.90
23116;DHT22;11727;52.134;5.052;2023-09-08T01:12:29;19.70;99.90
23116;DHT22;11727;52.134;5.052;2023-09-08T01:14:57;19.70;99.90
23116;DHT22;11727;52.134;5.052;2023-09-08T01:17:23;19.70;99.90
23116;DHT22;11727;52.134;5.052;2023-09-08T01:19:51;19.70;99.90
23116;DHT22;11727;52.134;5.052;2023-09-08T01:25:24;19.60;99.90
23116;DHT22;11727;52.134;5.052;2023-09-08T01:27:53;19.60;99.90
23116;DHT22;11727;52.134;5.052;2023-09-08T01:30:20;19.60;99.90
23116;DHT22;11727;52.134;5.052;2023-09-08T01:32:46;19.60;99.90
23116;DHT22;11727;52.134;5.052;2023-09-08T01:35:13;19.60;99.90
23116;DHT22;11727;52.134;5.052;2023-09-08T01:37:45;19.60;99.90
23116;DHT22;11727;52.134;5.052;2023-09-08T01:40:11;19.50;99.90
23116;DHT22;11727;52.134;5.052;2023-09-08T01:42:40;19.60;99.90
23116;DHT22;11727;52.134;5.052;2023-09-08T01:45:07;19.50;99.90
23116;DHT22;11727;52.134;5.052;2023-09-08T01:47:33;19.50;99.90
23116;DHT22;11727;52.134;5.052;2023-09-08T01:50:00;19.50;99.90
23116;DHT22;11727;52.134;5.052;2023-09-08T01:52:25;19.50;99.90
23116;DHT22;11727;52.134;5.052;2023-09-08T01:54:51;19.60;99.90
23116;DHT22;11727;52.134;5.052;2023-09-08T01:57:17;19.50;99.90
23116;DHT22;11727;52.134;5.052;2023-09-08T01:59:42;19.50;99.90
23116;DHT22;11727;52.134;5.052;2023-09-08T02:02:10;19.60;99.90
23116;DHT22;11727;52.134;5.052;2023-09-08T02:04:36;19.50;99.90
23116;DHT22;11727;52.134;5.052;2023-09-08T02:07:01;19.50;99.90
23116;DHT22;11727;52.134;5.052;2023-09-08T02:09:36;19.50;99.90
23116;DHT22;11727;52.134;5.052;2023-09-08T02:12:02;19.50;99.90
23116;DHT22;11727;52.134;5.052;2023-09-08T02:14:28;19.50;99.90
23116;DHT22;11727;52.134;5.052;2023-09-08T02:16:55;19.50;99.90
23116;DHT22;11727;52.134;5.052;2023-09-08T02:19:20;19.50;99.90
23116;DHT22;11727;52.134;5.052;2023-09-08T02:21:46;19.50;99.90
23116;DHT22;11727;52.134;5.052;2023-09-08T02:24:12;19.40;99.90
23116;DHT22;11727;52.134;5.052;2023-09-08T02:26:40;19.50;99.90
23116;DHT22;11727;52.134;5.052;2023-09-08T02:29:06;19.50;99.90
23116;DHT22;11727;52.134;5.052;2023-09-08T02:31:32;19.40;99.90
23116;DHT22;11727;52.134;5.052;2023-09-08T02:33:58;19.40;99.90
23116;DHT22;11727;52.134;5.052;2023-09-08T02:36:24;19.40;99.90
23116;DHT22;11727;52.134;5.052;2023-09-08T02:38:53;19.40;99.90
23116;DHT22;11727;52.134;5.052;2023-09-08T02:41:19;19.40;99.90
23116;DHT22;11727;52.134;5.052;2023-09-08T02:43:45;19.40;99.90
23116;DHT22;11727;52.134;5.052;2023-09-08T02:46:10;19.40;99.90
23116;DHT22;11727;52.134;5.052;2023-09-08T02:48:37;19.40;99.90
23116;DHT22;11727;52.134;5.052;2023-09-08T02:51:03;19.40;99.90
23116;DHT22;11727;52.134;5.052;2023-09-08T02:53:28;19.40;99.90
23116;DHT22;11727;52.134;5.052;2023-09-08T02:55:55;19.40;99.90
23116;DHT22;11727;52.134;5.052;2023-09-08T02:58:21;19.30;99.90
23116;DHT22;11727;52.134;5.052;2023-09-08T03:00:46;19.40;99.90
23116;DHT22;11727;52.134;5.052;2023-09-08T03:03:12;19.40;99.90
23116;DHT22;11727;52.134;5.052;2023-09-08T03:05:37;19.30;99.90
23116;DHT22;11727;52.134;5.052;2023-09-08T03:08:03;19.30;99.90
23116;DHT22;11727;52.134;5.052;2023-09-08T03:10:30;19.30;99.90
23116;DHT22;11727;52.134;5.052;2023-09-08T03:13:02;19.20;99.90
23116;DHT22;11727;52.134;5.052;2023-09-08T03:15:28;19.20;99.90
23116;DHT22;11727;52.134;5.052;2023-09-08T03:17:54;19.20;99.90
23116;DHT22;11727;52.134;5.052;2023-09-08T03:20:20;19.20;99.90
23116;DHT22;11727;52.134;5.052;2023-09-08T03:22:46;19.20;99.90
23116;DHT22;11727;52.134;5.052;2023-09-08T03:25:13;19.20;99.90
23116;DHT22;11727;52.134;5.052;2023-09-08T03:27:40;19.20;99.90
23116;DHT22;11727;52.134;5.052;2023-09-08T03:30:06;19.20;99.90
23116;DHT22;11727;52.134;5.052;2023-09-08T03:32:32;19.10;99.90
23116;DHT22;11727;52.134;5.052;2023-09-08T03:34:57;19.10;99.90
23116;DHT22;11727;52.134;5.052;2023-09-08T03:37:23;19.10;99.90
23116;DHT22;11727;52.134;5.052;2023-09-08T03:39:49;19.10;99.90
23116;DHT22;11727;52.134;5.052;2023-09-08T03:42:14;19.10;99.90
23116;DHT22;11727;52.134;5.052;2023-09-08T03:44:40;19.00;99.90
23116;DHT22;11727;52.134;5.052;2023-09-08T03:47:05;19.00;99.90
23116;DHT22;11727;52.134;5.052;2023-09-08T03:49:32;19.00;99.90
23116;DHT22;11727;52.134;5.052;2023-09-08T03:51:58;19.00;99.90
23116;DHT22;11727;52.134;5.052;2023-09-08T03:54:24;18.90;99.90
23116;DHT22;11727;52.134;5.052;2023-09-08T03:56:49;18.90;99.90
23116;DHT22;11727;52.134;5.052;2023-09-08T03:59:15;18.90;99.90
23116;DHT22;11727;52.134;5.052;2023-09-08T04:01:40;18.90;99.90
23116;DHT22;11727;52.134;5.052;2023-09-08T04:04:06;18.80;99.90
23116;DHT22;11727;52.134;5.052;2023-09-08T04:06:32;18.80;99.90
23116;DHT22;11727;52.134;5.052;2023-09-08T04:08:58;18.80;99.90
23116;DHT22;11727;52.134;5.052;2023-09-08T04:11:23;18.70;99.90
23116;DHT22;11727;52.134;5.052;2023-09-08T04:13:49;18.70;99.90
23116;DHT22;11727;52.134;5.052;2023-09-08T04:16:14;18.70;99.90
23116;DHT22;11727;52.134;5.052;2023-09-08T04:18:40;18.70;99.90
23116;DHT22;11727;52.134;5.052;2023-09-08T04:21:06;18.60;99.90
23116;DHT22;11727;52.134;5.052;2023-09-08T04:23:33;18.60;99.90
23116;DHT22;11727;52.134;5.052;2023-09-08T04:25:59;18.60;99.90
23116;DHT22;11727;52.134;5.052;2023-09-08T04:28:25;18.60;99.90
23116;DHT22;11727;52.134;5.052;2023-09-08T04:30:50;18.60;99.90
23116;DHT22;11727;52.134;5.052;2023-09-08T04:33:16;18.60;99.90
23116;DHT22;11727;52.134;5.052;2023-09-08T04:35:41;18.60;99.90
23116;DHT22;11727;52.134;5.052;2023-09-08T04:38:07;18.60;99.90
23116;DHT22;11727;52.134;5.052;2023-09-08T04:40:33;18.50;99.90
23116;DHT22;11727;52.134;5.052;2023-09-08T04:42:59;18.50;99.90
23116;DHT22;11727;52.134;5.052;2023-09-08T04:45:25;18.50;99.90
23116;DHT22;11727;52.134;5.052;2023-09-08T04:47:50;18.50;99.90
23116;DHT22;11727;52.134;5.052;2023-09-08T04:50:16;18.40;99.90
23116;DHT22;11727;52.134;5.052;2023-09-08T04:52:41;18.40;99.90
23116;DHT22;11727;52.134;5.052;2023-09-08T04:55:07;18.40;99.90
23116;DHT22;11727;52.134;5.052;2023-09-08T04:57:33;18.40;99.90
23116;DHT22;11727;52.134;5.052;2023-09-08T04:59:59;18.40;99.90
23116;DHT22;11727;52.134;5.052;2023-09-08T05:02:24;18.40;99.90
23116;DHT22;11727;52.134;5.052;2023-09-08T05:04:50;18.30;99.90
23116;DHT22;11727;52.134;5.052;2023-09-08T05:07:16;18.30;99.90
23116;DHT22;11727;52.134;5.052;2023-09-08T05:09:41;18.30;99.90
23116;DHT22;11727;52.134;5.052;2023-09-08T05:12:07;18.30;99.90
23116;DHT22;11727;52.134;5.052;2023-09-08T05:14:32;18.30;99.90
23116;DHT22;11727;52.134;5.052;2023-09-08T05:16:58;18.30;99.90
23116;DHT22;11727;52.134;5.052;2023-09-08T05:19:24;18.30;99.90
23116;DHT22;11727;52.134;5.052;2023-09-08T05:21:54;18.30;99.90
23116;DHT22;11727;52.134;5.052;2023-09-08T05:24:20;18.30;99.90
23116;DHT22;11727;52.134;5.052;2023-09-08T05:26:46;18.30;99.90
23116;DHT22;11727;52.134;5.052;2023-09-08T05:29:12;18.30;99.90
23116;DHT22;11727;52.134;5.052;2023-09-08T05:31:38;18.30;99.90
23116;DHT22;11727;52.134;5.052;2023-09-08T05:34:04;18.30;99.90
23116;DHT22;11727;52.134;5.052;2023-09-08T05:36:30;18.30;99.90
23116;DHT22;11727;52.134;5.052;2023-09-08T05:38:56;18.30;99.90
23116;DHT22;11727;52.134;5.052;2023-09-08T05:41:22;18.30;99.90
23116;DHT22;11727;52.134;5.052;2023-09-08T05:43:48;18.30;99.90
23116;DHT22;11727;52.134;5.052;2023-09-08T05:46:13;18.30;99.90
23116;DHT22;11727;52.134;5.052;2023-09-08T05:48:39;18.30;99.90
23116;DHT22;11727;52.134;5.052;2023-09-08T05:51:05;18.30;99.90
23116;DHT22;11727;52.134;5.052;2023-09-08T05:53:32;18.30;99.90
23116;DHT22;11727;52.134;5.052;2023-09-08T05:55:58;18.30;99.90
23116;DHT22;11727;52.134;5.052;2023-09-08T05:58:24;18.30;99.90
23116;DHT22;11727;52.134;5.052;2023-09-08T06:00:55;18.40;99.90
23116;DHT22;11727;52.134;5.052;2023-09-08T06:03:21;18.40;99.90
23116;DHT22;11727;52.134;5.052;2023-09-08T06:05:46;18.40;99.90
23116;DHT22;11727;52.134;5.052;2023-09-08T06:08:12;18.40;99.90
23116;DHT22;11727;52.134;5.052;2023-09-08T06:10:38;18.50;99.90
23116;DHT22;11727;52.134;5.052;2023-09-08T06:13:04;18.50;99.90
23116;DHT22;11727;52.134;5.052;2023-09-08T06:15:30;18.60;99.90
23116;DHT22;11727;52.134;5.052;2023-09-08T06:17:56;18.70;99.90
23116;DHT22;11727;52.134;5.052;2023-09-08T06:20:22;18.70;99.90
23116;DHT22;11727;52.134;5.052;2023-09-08T06:22:48;18.80;99.90
23116;DHT22;11727;52.134;5.052;2023-09-08T06:25:14;18.80;99.90
23116;DHT22;11727;52.134;5.052;2023-09-08T06:27:40;18.90;99.90
23116;DHT22;11727;52.134;5.052;2023-09-08T06:30:06;19.00;99.90
23116;DHT22;11727;52.134;5.052;2023-09-08T06:32:32;19.00;99.90
23116;DHT22;11727;52.134;5.052;2023-09-08T06:34:58;19.10;99.90
23116;DHT22;11727;52.134;5.052;2023-09-08T06:37:23;19.20;99.90
23116;DHT22;11727;52.134;5.052;2023-09-08T06:39:49;19.40;99.90
23116;DHT22;11727;52.134;5.052;2023-09-08T06:42:14;19.50;99.90
23116;DHT22;11727;52.134;5.052;2023-09-08T06:44:40;19.70;99.90
23116;DHT22;11727;52.134;5.052;2023-09-08T06:47:05;19.80;99.90
23116;DHT22;11727;52.134;5.052;2023-09-08T06:49:33;20.00;99.90
23116;DHT22;11727;52.134;5.052;2023-09-08T06:51:58;20.20;99.90
23116;DHT22;11727;52.134;5.052;2023-09-08T06:54:24;20.40;99.90
23116;DHT22;11727;52.134;5.052;2023-09-08T06:56:50;20.50;99.90
23116;DHT22;11727;52.134;5.052;2023-09-08T06:59:15;20.70;99.90
23116;DHT22;11727;52.134;5.052;2023-09-08T07:01:42;20.80;99.90
23116;DHT22;11727;52.134;5.052;2023-09-08T07:04:08;21.00;99.90
23116;DHT22;11727;52.134;5.052;2023-09-08T07:06:33;21.10;99.90
23116;DHT22;11727;52.134;5.052;2023-09-08T07:09:00;21.30;99.90
23116;DHT22;11727;52.134;5.052;2023-09-08T07:11:26;21.40;99.90
23116;DHT22;11727;52.134;5.052;2023-09-08T07:13:52;21.60;99.90
23116;DHT22;11727;52.134;5.052;2023-09-08T07:16:17;21.70;99.90
23116;DHT22;11727;52.134;5.052;2023-09-08T07:18:43;21.90;99.90
23116;DHT22;11727;52.134;5.052;2023-09-08T07:21:09;22.00;99.90
23116;DHT22;11727;52.134;5.052;2023-09-08T07:23:34;22.20;99.90
23116;DHT22;11727;52.134;5.052;2023-09-08T07:26:02;22.30;99.90
23116;DHT22;11727;52.134;5.052;2023-09-08T07:28:27;22.40;99.90
23116;DHT22;11727;52.134;5.052;2023-09-08T07:30:53;22.60;99.90
23116;DHT22;11727;52.134;5.052;2023-09-08T07:33:18;22.70;99.90
23116;DHT22;11727;52.134;5.052;2023-09-08T07:35:44;22.90;99.90
23116;DHT22;11727;52.134;5.052;2023-09-08T07:38:10;23.00;99.90
23116;DHT22;11727;52.134;5.052;2023-09-08T07:40:36;23.20;99.90
23116;DHT22;11727;52.134;5.052;2023-09-08T07:43:02;23.30;99.90
23116;DHT22;11727;52.134;5.052;2023-09-08T07:45:28;23.40;99.90
23116;DHT22;11727;52.134;5.052;2023-09-08T07:47:53;23.50;99.90
23116;DHT22;11727;52.134;5.052;2023-09-08T07:50:24;23.60;99.90
23116;DHT22;11727;52.134;5.052;2023-09-08T07:52:51;23.70;99.90
23116;DHT22;11727;52.134;5.052;2023-09-08T07:55:17;23.90;99.90
23116;DHT22;11727;52.134;5.052;2023-09-08T07:57:44;24.00;99.90
23116;DHT22;11727;52.134;5.052;2023-09-08T08:00:12;24.30;99.90
23116;DHT22;11727;52.134;5.052;2023-09-08T08:02:41;24.40;99.90
23116;DHT22;11727;52.134;5.052;2023-09-08T08:05:07;24.60;99.90
23116;DHT22;11727;52.134;5.052;2023-09-08T08:07:32;24.70;99.90
23116;DHT22;11727;52.134;5.052;2023-09-08T08:09:58;24.90;99.90
23116;DHT22;11727;52.134;5.052;2023-09-08T08:12:24;25.00;99.90
23116;DHT22;11727;52.134;5.052;2023-09-08T08:14:49;25.10;99.90
23116;DHT22;11727;52.134;5.052;2023-09-08T08:17:15;25.20;99.90
23116;DHT22;11727;52.134;5.052;2023-09-08T08:19:42;25.40;99.90
23116;DHT22;11727;52.134;5.052;2023-09-08T08:22:08;25.40;99.90
23116;DHT22;11727;52.134;5.052;2023-09-08T08:24:34;25.50;99.90
23116;DHT22;11727;52.134;5.052;2023-09-08T08:26:59;25.60;99.90
23116;DHT22;11727;52.134;5.052;2023-09-08T08:29:28;25.80;99.90
23116;DHT22;11727;52.134;5.052;2023-09-08T08:31:54;25.90;99.90
23116;DHT22;11727;52.134;5.052;2023-09-08T08:34:20;26.00;99.90
23116;DHT22;11727;52.134;5.052;2023-09-08T08:36:46;26.00;99.90
23116;DHT22;11727;52.134;5.052;2023-09-08T08:39:11;26.10;99.90
23116;DHT22;11727;52.134;5.052;2023-09-08T08:41:37;26.20;99.90
23116;DHT22;11727;52.134;5.052;2023-09-08T08:44:08;26.30;99.90
23116;DHT22;11727;52.134;5.052;2023-09-08T08:46:35;26.40;99.90
23116;DHT22;11727;52.134;5.052;2023-09-08T08:49:04;26.40;99.90
23116;DHT22;11727;52.134;5.052;2023-09-08T08:51:31;26.50;99.90
23116;DHT22;11727;52.134;5.052;2023-09-08T08:53:57;26.70;99.90
23116;DHT22;11727;52.134;5.052;2023-09-08T08:56:23;26.70;99.90
23116;DHT22;11727;52.134;5.052;2023-09-08T08:58:50;26.90;99.90
23116;DHT22;11727;52.134;5.052;2023-09-08T09:01:16;27.00;99.90
23116;DHT22;11727;52.134;5.052;2023-09-08T09:03:44;27.10;99.90
23116;DHT22;11727;52.134;5.052;2023-09-08T09:06:11;27.20;99.90
23116;DHT22;11727;52.134;5.052;2023-09-08T09:08:38;27.20;99.90
23116;DHT22;11727;52.134;5.052;2023-09-08T09:11:04;27.30;99.90
23116;DHT22;11727;52.134;5.052;2023-09-08T09:13:30;27.40;99.90
23116;DHT22;11727;52.134;5.052;2023-09-08T09:15:59;27.50;99.90
23116;DHT22;11727;52.134;5.052;2023-09-08T09:18:25;27.70;99.90
23116;DHT22;11727;52.134;5.052;2023-09-08T09:20:56;27.80;99.90
23116;DHT22;11727;52.134;5.052;2023-09-08T09:23:33;27.90;99.90
23116;DHT22;11727;52.134;5.052;2023-09-08T09:26:03;28.00;99.90
23116;DHT22;11727;52.134;5.052;2023-09-08T09:28:32;28.10;99.90
23116;DHT22;11727;52.134;5.052;2023-09-08T09:30:57;28.10;99.90
23116;DHT22;11727;52.134;5.052;2023-09-08T09:33:24;28.20;99.90
23116;DHT22;11727;52.134;5.052;2023-09-08T09:35:51;28.30;99.90
23116;DHT22;11727;52.134;5.052;2023-09-08T09:38:18;28.40;99.90
23116;DHT22;11727;52.134;5.052;2023-09-08T09:40:45;28.50;99.90
23116;DHT22;11727;52.134;5.052;2023-09-08T09:43:11;28.60;99.90
23116;DHT22;11727;52.134;5.052;2023-09-08T09:45:38;28.60;99.90
23116;DHT22;11727;52.134;5.052;2023-09-08T09:48:05;28.70;99.90
23116;DHT22;11727;52.134;5.052;2023-09-08T09:50:35;28.80;99.90
23116;DHT22;11727;52.134;5.052;2023-09-08T09:53:07;28.90;99.90
23116;DHT22;11727;52.134;5.052;2023-09-08T09:55:33;28.90;99.90
23116;DHT22;11727;52.134;5.052;2023-09-08T09:58:03;29.00;99.90
23116;DHT22;11727;52.134;5.052;2023-09-08T10:00:32;29.00;99.90
23116;DHT22;11727;52.134;5.052;2023-09-08T10:02:59;29.00;99.90
23116;DHT22;11727;52.134;5.052;2023-09-08T10:05:26;29.10;99.90
23116;DHT22;11727;52.134;5.052;2023-09-08T10:07:52;29.00;99.90
23116;DHT22;11727;52.134;5.052;2023-09-08T10:10:20;28.90;99.90
23116;DHT22;11727;52.134;5.052;2023-09-08T10:12:52;29.00;99.90
23116;DHT22;11727;52.134;5.052;2023-09-08T10:15:21;29.10;99.90
23116;DHT22;11727;52.134;5.052;2023-09-08T10:17:52;29.10;99.90
23116;DHT22;11727;52.134;5.052;2023-09-08T10:20:19;29.20;99.90
23116;DHT22;11727;52.134;5.052;2023-09-08T10:22:54;29.30;99.90
23116;DHT22;11727;52.134;5.052;2023-09-08T10:25:24;29.40;99.90
23116;DHT22;11727;52.134;5.052;2023-09-08T10:27:50;29.50;99.90
23116;DHT22;11727;52.134;5.052;2023-09-08T10:30:17;29.50;99.90
23116;DHT22;11727;52.134;5.052;2023-09-08T10:32:46;29.60;99.90
23116;DHT22;11727;52.134;5.052;2023-09-08T10:35:12;29.60;99.90
23116;DHT22;11727;52.134;5.052;2023-09-08T10:37:38;29.60;99.90
23116;DHT22;11727;52.134;5.052;2023-09-08T10:40:21;29.60;99.90
23116;DHT22;11727;52.134;5.052;2023-09-08T10:42:47;29.60;99.90
23116;DHT22;11727;52.134;5.052;2023-09-08T10:45:19;29.60;99.90
23116;DHT22;11727;52.134;5.052;2023-09-08T10:50:18;29.70;99.90
23116;DHT22;11727;52.134;5.052;2023-09-08T10:52:44;29.70;99.90
23116;DHT22;11727;52.134;5.052;2023-09-08T10:55:11;29.80;99.90
23116;DHT22;11727;52.134;5.052;2023-09-08T10:57:38;29.80;99.90
23116;DHT22;11727;52.134;5.052;2023-09-08T11:00:09;29.80;99.90
23116;DHT22;11727;52.134;5.052;2023-09-08T11:02:48;29.80;99.90
23116;DHT22;11727;52.134;5.052;2023-09-08T11:05:15;29.80;99.90
23116;DHT22;11727;52.134;5.052;2023-09-08T11:07:43;29.80;99.90
23116;DHT22;11727;52.134;5.052;2023-09-08T11:10:09;29.80;99.90
23116;DHT22;11727;52.134;5.052;2023-09-08T11:12:36;29.70;99.90
23116;DHT22;11727;52.134;5.052;2023-09-08T11:15:03;29.70;99.90
23116;DHT22;11727;52.134;5.052;2023-09-08T11:17:34;29.70;99.90
23116;DHT22;11727;52.134;5.052;2023-09-08T11:20:01;29.70;99.90
23116;DHT22;11727;52.134;5.052;2023-09-08T11:22:34;29.80;99.90
23116;DHT22;11727;52.134;5.052;2023-09-08T11:25:00;29.80;99.90
23116;DHT22;11727;52.134;5.052;2023-09-08T11:27:27;29.70;99.90
23116;DHT22;11727;52.134;5.052;2023-09-08T11:29:54;29.70;99.90
23116;DHT22;11727;52.134;5.052;2023-09-08T11:32:19;29.80;99.90
23116;DHT22;11727;52.134;5.052;2023-09-08T11:34:45;29.80;99.90
23116;DHT22;11727;52.134;5.052;2023-09-08T11:37:16;29.80;99.90
23116;DHT22;11727;52.134;5.052;2023-09-08T11:39:46;29.80;99.90
23116;DHT22;11727;52.134;5.052;2023-09-08T11:42:13;29.90;99.90
23116;DHT22;11727;52.134;5.052;2023-09-08T11:44:40;29.90;99.90
23116;DHT22;11727;52.134;5.052;2023-09-08T11:47:07;29.90;99.90
23116;DHT22;11727;52.134;5.052;2023-09-08T11:49:35;30.00;99.90
23116;DHT22;11727;52.134;5.052;2023-09-08T11:52:01;30.10;99.90
23116;DHT22;11727;52.134;5.052;2023-09-08T11:54:27;30.10;99.90
23116;DHT22;11727;52.134;5.052;2023-09-08T11:56:53;30.20;99.90
23116;DHT22;11727;52.134;5.052;2023-09-08T11:59:19;30.20;99.90
23116;DHT22;11727;52.134;5.052;2023-09-08T12:01:45;30.20;99.90
23116;DHT22;11727;52.134;5.052;2023-09-08T12:04:18;30.30;99.90
23116;DHT22;11727;52.134;5.052;2023-09-08T12:06:45;30.40;99.90
23116;DHT22;11727;52.134;5.052;2023-09-08T12:09:11;30.40;99.90
23116;DHT22;11727;52.134;5.052;2023-09-08T12:11:37;30.50;99.90
23116;DHT22;11727;52.134;5.052;2023-09-08T12:14:09;30.50;99.90
23116;DHT22;11727;52.134;5.052;2023-09-08T12:16:35;30.50;99.90
23116;DHT22;11727;52.134;5.052;2023-09-08T12:19:01;30.50;99.90
23116;DHT22;11727;52.134;5.052;2023-09-08T12:21:27;30.50;99.90
23116;DHT22;11727;52.134;5.052;2023-09-08T12:23:54;30.50;99.90
23116;DHT22;11727;52.134;5.052;2023-09-08T12:26:20;30.50;99.90
23116;DHT22;11727;52.134;5.052;2023-09-08T12:28:47;30.50;99.90
23116;DHT22;11727;52.134;5.052;2023-09-08T12:31:13;30.50;99.90
23116;DHT22;11727;52.134;5.052;2023-09-08T12:33:39;30.60;99.90
23116;DHT22;11727;52.134;5.052;2023-09-08T12:36:16;30.60;99.90
23116;DHT22;11727;52.134;5.052;2023-09-08T12:38:50;30.60;99.90
23116;DHT22;11727;52.134;5.052;2023-09-08T12:41:16;30.60;99.90
23116;DHT22;11727;52.134;5.052;2023-09-08T12:43:42;30.50;99.90
23116;DHT22;11727;52.134;5.052;2023-09-08T12:46:08;30.50;99.90
23116;DHT22;11727;52.134;5.052;2023-09-08T12:48:33;30.60;99.90
23116;DHT22;11727;52.134;5.052;2023-09-08T12:50:59;30.60;99.90
23116;DHT22;11727;52.134;5.052;2023-09-08T12:53:25;30.60;99.90
23116;DHT22;11727;52.134;5.052;2023-09-08T12:55:50;30.70;99.90
23116;DHT22;11727;52.134;5.052;2023-09-08T12:58:16;30.80;99.90
23116;DHT22;11727;52.134;5.052;2023-09-08T13:00:45;30.80;99.90
23116;DHT22;11727;52.134;5.052;2023-09-08T13:03:12;30.80;99.90
23116;DHT22;11727;52.134;5.052;2023-09-08T13:05:37;30.90;99.90
23116;DHT22;11727;52.134;5.052;2023-09-08T13:08:04;30.90;99.90
23116;DHT22;11727;52.134;5.052;2023-09-08T13:10:30;30.80;99.90
23116;DHT22;11727;52.134;5.052;2023-09-08T13:12:56;30.90;99.90
23116;DHT22;11727;52.134;5.052;2023-09-08T13:15:22;30.90;99.90
23116;DHT22;11727;52.134;5.052;2023-09-08T13:17:48;30.90;99.90
23116;DHT22;11727;52.134;5.052;2023-09-08T13:20:13;31.00;99.90
23116;DHT22;11727;52.134;5.052;2023-09-08T13:22:39;31.00;99.90
23116;DHT22;11727;52.134;5.052;2023-09-08T13:25:05;31.00;99.90
23116;DHT22;11727;52.134;5.052;2023-09-08T13:27:31;31.00;99.90
23116;DHT22;11727;52.134;5.052;2023-09-08T13:30:13;31.00;99.90
23116;DHT22;11727;52.134;5.052;2023-09-08T13:32:39;31.00;99.90
23116;DHT22;11727;52.134;5.052;2023-09-08T13:35:06;31.10;99.90
23116;DHT22;11727;52.134;5.052;2023-09-08T13:37:32;31.00;99.90
23116;DHT22;11727;52.134;5.052;2023-09-08T13:40:00;31.10;99.90
23116;DHT22;11727;52.134;5.052;2023-09-08T13:42:25;31.10;99.90
23116;DHT22;11727;52.134;5.052;2023-09-08T13:44:51;31.00;99.90
23116;DHT22;11727;52.134;5.052;2023-09-08T13:47:16;31.00;99.90
23116;DHT22;11727;52.134;5.052;2023-09-08T13:49:42;31.00;99.90
23116;DHT22;11727;52.134;5.052;2023-09-08T13:52:08;31.00;99.90
23116;DHT22;11727;52.134;5.052;2023-09-08T13:54:33;31.00;99.90
23116;DHT22;11727;52.134;5.052;2023-09-08T13:57:03;31.00;99.90
23116;DHT22;11727;52.134;5.052;2023-09-08T13:59:30;31.10;99.90
23116;DHT22;11727;52.134;5.052;2023-09-08T14:01:56;31.20;99.90
23116;DHT22;11727;52.134;5.052;2023-09-08T14:04:23;31.10;99.90
23116;DHT22;11727;52.134;5.052;2023-09-08T14:06:49;31.10;99.90
23116;DHT22;11727;52.134;5.052;2023-09-08T14:09:14;31.20;99.90
23116;DHT22;11727;52.134;5.052;2023-09-08T14:11:40;31.20;99.90
23116;DHT22;11727;52.134;5.052;2023-09-08T14:14:06;31.20;99.90
23116;DHT22;11727;52.134;5.052;2023-09-08T14:16:32;31.10;99.90
23116;DHT22;11727;52.134;5.052;2023-09-08T14:18:57;31.20;99.90
23116;DHT22;11727;52.134;5.052;2023-09-08T14:21:23;31.20;99.90
23116;DHT22;11727;52.134;5.052;2023-09-08T14:23:48;31.30;99.90
23116;DHT22;11727;52.134;5.052;2023-09-08T14:26:14;31.20;99.90
23116;DHT22;11727;52.134;5.052;2023-09-08T14:28:40;31.20;99.90
23116;DHT22;11727;52.134;5.052;2023-09-08T14:31:05;31.20;99.90
23116;DHT22;11727;52.134;5.052;2023-09-08T14:33:31;31.10;99.90
23116;DHT22;11727;52.134;5.052;2023-09-08T14:35:57;31.10;99.90
23116;DHT22;11727;52.134;5.052;2023-09-08T14:38:23;31.20;99.90
23116;DHT22;11727;52.134;5.052;2023-09-08T14:41:00;31.20;99.90
23116;DHT22;11727;52.134;5.052;2023-09-08T14:43:27;31.20;99.90
23116;DHT22;11727;52.134;5.052;2023-09-08T14:45:53;31.10;99.90
23116;DHT22;11727;52.134;5.052;2023-09-08T14:48:19;31.20;99.90
23116;DHT22;11727;52.134;5.052;2023-09-08T14:50:46;31.20;99.90
23116;DHT22;11727;52.134;5.052;2023-09-08T14:53:12;31.30;99.90
23116;DHT22;11727;52.134;5.052;2023-09-08T14:55:37;31.30;99.90
23116;DHT22;11727;52.134;5.052;2023-09-08T14:58:03;31.20;99.90
23116;DHT22;11727;52.134;5.052;2023-09-08T15:00:29;31.20;99.90
23116;DHT22;11727;52.134;5.052;2023-09-08T15:02:54;31.10;99.90
23116;DHT22;11727;52.134;5.052;2023-09-08T15:05:20;31.10;99.90
23116;DHT22;11727;52.134;5.052;2023-09-08T15:07:46;31.10;99.90
23116;DHT22;11727;52.134;5.052;2023-09-08T15:10:11;31.10;99.90
23116;DHT22;11727;52.134;5.052;2023-09-08T15:12:37;31.10;99.90
23116;DHT22;11727;52.134;5.052;2023-09-08T15:15:03;31.10;99.90
23116;DHT22;11727;52.134;5.052;2023-09-08T15:17:29;31.10;99.90
23116;DHT22;11727;52.134;5.052;2023-09-08T15:19:56;31.10;99.90
23116;DHT22;11727;52.134;5.052;2023-09-08T15:22:21;31.10;99.90
23116;DHT22;11727;52.134;5.052;2023-09-08T15:24:47;31.10;99.90
23116;DHT22;11727;52.134;5.052;2023-09-08T15:27:12;31.10;99.90
23116;DHT22;11727;52.134;5.052;2023-09-08T15:29:38;31.10;99.90
23116;DHT22;11727;52.134;5.052;2023-09-08T15:32:04;31.00;99.90